Time;durP1;ratioP1;P1;durP2;ratioP2;P2;SDS_P1;SDS_P2;PMS_P1;PMS_P2;Temp;Humidity;BMP_temperature;BMP_pressure;BME280_temperature;BME280_humidity;BME280_pressure;Samples;Min_cycle;Max_cycle;Signal;HPM_P1;HPM_P2
2022/03/15 00:00:19;;;;;;;17.52;10.07;;;;;;;-0.84;56.42;96508.00;5033223;28;20084;-65
2022/03/15 00:02:45;;;;;;;21.08;10.63;;;;;;;-0.92;56.55;96501.31;5033444;28;20040;-65
2022/03/15 00:05:10;;;;;;;17.58;11.27;;;;;;;-0.91;56.42;96502.16;5033107;28;20021;-65
2022/03/15 00:07:35;;;;;;;20.88;11.38;;;;;;;-0.91;56.41;96505.53;5032118;28;20392;-65
2022/03/15 00:10:01;;;;;;;24.23;12.40;;;;;;;-0.94;56.24;96497.94;5032998;28;20029;-66
2022/03/15 00:12:28;;;;;;;23.67;12.95;;;;;;;-1.01;56.77;96486.09;5031557;28;20025;-66
2022/03/15 00:14:54;;;;;;;20.23;11.25;;;;;;;-1.01;56.60;96492.91;5031738;28;20116;-66
2022/03/15 00:17:21;;;;;;;20.23;11.63;;;;;;;-1.01;56.79;96496.28;5031426;28;20105;-66
2022/03/15 00:19:47;;;;;;;22.48;13.07;;;;;;;-1.02;56.61;96489.50;5032554;28;20473;-67
2022/03/15 00:22:13;;;;;;;20.95;12.52;;;;;;;-1.02;56.53;96494.59;5031495;28;20021;-67
2022/03/15 00:24:38;;;;;;;22.20;12.15;;;;;;;-1.04;56.88;96492.94;5032667;28;20072;-67
2022/03/15 00:27:04;;;;;;;17.17;10.75;;;;;;;-1.14;56.90;96495.59;5031701;28;20017;-67
2022/03/15 00:29:29;;;;;;;21.77;12.32;;;;;;;-1.12;57.07;96493.00;5033100;28;20415;-67
2022/03/15 00:31:55;;;;;;;18.20;10.35;;;;;;;-1.14;56.36;96495.59;5032564;28;20017;-67
2022/03/15 00:34:20;;;;;;;18.25;10.30;;;;;;;-1.25;56.03;96476.16;5031526;28;20045;-67
2022/03/15 00:36:46;;;;;;;19.10;10.20;;;;;;;-1.16;55.99;96496.47;5014800;28;20079;-67
2022/03/15 00:39:11;;;;;;;17.42;9.88;;;;;;;-1.18;55.58;96487.97;5014646;28;20472;-67
2022/03/15 00:41:37;;;;;;;17.92;10.38;;;;;;;-1.21;55.66;96495.66;5031164;28;20549;-67
2022/03/15 00:44:02;;;;;;;18.27;10.23;;;;;;;-1.25;55.69;96489.75;5014907;28;20038;-67
2022/03/15 00:46:28;;;;;;;19.27;10.02;;;;;;;-1.22;56.01;96482.06;5032210;28;20108;-67
2022/03/15 00:48:54;;;;;;;21.23;12.75;;;;;;;-1.28;56.47;96491.47;5031522;28;20476;-67
2022/03/15 00:51:19;;;;;;;24.58;13.80;;;;;;;-1.30;56.20;96483.00;5030881;28;20048;-67
2022/03/15 00:53:44;;;;;;;21.92;12.35;;;;;;;-1.33;56.25;96488.97;5030830;28;20037;-67
2022/03/15 00:56:10;;;;;;;22.40;11.95;;;;;;;-1.36;56.30;96484.75;5032346;28;20021;-67
2022/03/15 00:58:35;;;;;;;18.38;10.43;;;;;;;-1.43;56.46;96483.09;5030894;28;20033;-67
2022/03/15 01:01:01;;;;;;;28.25;10.98;;;;;;;-1.46;56.81;96483.13;5032042;28;20491;-66
2022/03/15 01:03:26;;;;;;;27.60;12.57;;;;;;;-1.58;57.20;96480.72;5030050;28;20045;-66
2022/03/15 01:05:52;;;;;;;21.25;10.68;;;;;;;-1.62;56.90;96471.38;5030739;28;20029;-66
2022/03/15 01:08:17;;;;;;;19.90;10.55;;;;;;;-1.65;56.82;96461.22;5032152;28;20346;-67
2022/03/15 01:10:43;;;;;;;17.33;10.15;;;;;;;-1.65;57.27;96456.13;5030581;28;20036;-66
2022/03/15 01:13:08;;;;;;;16.40;9.60;;;;;;;-1.71;56.68;96453.63;5030761;28;20029;-66
2022/03/15 01:15:44;;;;;;;20.35;10.88;;;;;;;-1.94;57.18;96447.03;5014050;28;20459;-66
2022/03/15 01:18:10;;;;;;;18.38;10.10;;;;;;;-1.89;57.58;96452.09;5030276;28;20053;-67
2022/03/15 01:20:38;;;;;;;17.77;10.27;;;;;;;-1.86;57.23;96452.91;5031599;28;20087;-66
2022/03/15 01:23:04;;;;;;;26.33;13.68;;;;;;;-1.85;57.97;96459.69;5014138;28;20384;-67
2022/03/15 01:25:32;;;;;;;29.13;15.65;;;;;;;-1.91;58.57;96464.84;5031622;28;20028;-67
2022/03/15 01:27:58;;;;;;;37.10;18.80;;;;;;;-1.94;58.78;96469.13;5031464;28;20117;-67
2022/03/15 01:30:24;;;;;;;35.30;16.48;;;;;;;-1.90;58.40;96465.69;5030301;28;20033;-67
2022/03/15 01:32:49;;;;;;;25.48;14.90;;;;;;;-1.91;58.60;96467.38;5030252;28;20037;-66
2022/03/15 01:35:15;;;;;;;26.50;13.73;;;;;;;-1.92;58.96;96460.63;5030235;28;20025;-66
2022/03/15 01:37:40;;;;;;;20.30;11.55;;;;;;;-1.95;59.24;96467.41;5031341;28;20039;-67
2022/03/15 01:40:06;;;;;;;19.73;10.73;;;;;;;-2.02;57.99;96461.53;5030090;28;20080;-66
2022/03/15 01:42:31;;;;;;;16.67;10.30;;;;;;;-1.90;57.76;96471.63;5030012;28;20424;-67
2022/03/15 01:44:57;;;;;;;19.17;10.35;;;;;;;-1.92;57.71;96472.47;5030116;28;20026;-67
2022/03/15 01:47:22;;;;;;;19.65;10.18;;;;;;;-1.88;57.61;96469.91;5029876;28;20033;-66
2022/03/15 01:49:48;;;;;;;17.98;9.88;;;;;;;-1.91;58.10;96469.09;5031273;28;20033;-66
2022/03/15 01:52:15;;;;;;;17.35;10.02;;;;;;;-1.99;58.34;96469.16;5029880;28;20030;-67
2022/03/15 01:54:41;;;;;;;17.25;10.02;;;;;;;-1.96;57.85;96475.94;5013965;28;20286;-67
2022/03/15 01:57:07;;;;;;;18.02;9.38;;;;;;;-2.01;57.58;96478.50;5029822;28;20380;-66
2022/03/15 01:59:33;;;;;;;18.77;10.25;;;;;;;-1.92;57.60;96490.31;5029966;28;20121;-66
2022/03/15 02:01:59;;;;;;;18.30;10.32;;;;;;;-1.89;57.58;96492.88;5013409;28;20041;-66
2022/03/15 02:04:24;;;;;;;18.13;10.05;;;;;;;-1.96;57.20;96481.84;5031441;28;20037;-66
2022/03/15 02:07:00;;;;;;;19.95;11.27;;;;;;;-1.94;57.46;96495.44;5031930;28;20029;-66
2022/03/15 02:09:25;;;;;;;18.63;10.93;;;;;;;-1.98;57.82;96498.00;5016619;28;20090;-66
2022/03/15 02:11:51;;;;;;;19.85;10.88;;;;;;;-2.02;57.71;96492.09;5049429;28;20025;-67
2022/03/15 02:14:16;;;;;;;17.27;9.48;;;;;;;-2.05;57.38;96477.69;5051002;28;20045;-67
2022/03/15 02:16:42;;;;;;;18.50;9.73;;;;;;;-2.04;57.69;96471.72;5049398;28;20486;-66
2022/03/15 02:19:07;;;;;;;14.73;9.02;;;;;;;-2.12;57.25;96459.91;5049269;28;20060;-67
2022/03/15 02:21:35;;;;;;;17.88;10.02;;;;;;;-2.11;57.88;96474.34;5050675;28;20029;-67
2022/03/15 02:24:01;;;;;;;19.80;10.93;;;;;;;-2.11;57.91;96482.81;5033398;28;20171;-67
2022/03/15 02:26:26;;;;;;;17.70;9.70;;;;;;;-2.06;57.77;96477.72;5049401;28;20032;-67
2022/03/15 02:28:51;;;;;;;15.52;8.68;;;;;;;-2.03;57.43;96475.13;5050952;28;20036;-67
2022/03/15 02:31:17;;;;;;;19.13;9.73;;;;;;;-2.07;57.24;96458.16;5049361;28;20033;-66
2022/03/15 02:33:43;;;;;;;17.52;9.68;;;;;;;-2.10;57.68;96455.66;5032963;28;20029;-66
2022/03/15 02:36:08;;;;;;;19.58;10.15;;;;;;;-2.15;57.72;96453.13;5032632;28;20036;-67
2022/03/15 02:38:34;;;;;;;17.60;10.07;;;;;;;-2.12;57.65;96444.63;5049429;28;20040;-66
2022/03/15 02:41:00;;;;;;;17.83;8.85;;;;;;;-2.25;57.99;96434.53;5050487;28;20024;-66
2022/03/15 02:43:25;;;;;;;17.25;10.10;;;;;;;-2.25;58.56;96443.88;5050682;28;20075;-67
2022/03/15 02:45:50;;;;;;;16.23;9.48;;;;;;;-2.26;58.00;96437.94;5050423;28;20036;-67
2022/03/15 02:48:16;;;;;;;16.70;9.27;;;;;;;-2.29;58.00;96437.94;5050571;28;20090;-67
2022/03/15 02:50:41;;;;;;;15.70;8.98;;;;;;;-2.29;57.32;96440.50;5032875;28;20087;-66
2022/03/15 02:53:08;;;;;;;18.58;9.55;;;;;;;-2.21;57.64;96447.25;5032690;28;20525;-66
2022/03/15 02:55:34;;;;;;;16.98;9.20;;;;;;;-2.23;57.43;96456.59;5050284;28;20032;-67
2022/03/15 02:58:00;;;;;;;16.40;9.30;;;;;;;-2.23;57.97;96446.41;5050401;28;20037;-66
2022/03/15 03:00:27;;;;;;;15.48;9.20;;;;;;;-2.17;57.48;96448.91;5048983;28;20411;-67
2022/03/15 03:02:53;;;;;;;17.35;9.15;;;;;;;-2.17;56.99;96447.22;5050341;28;20032;-66
2022/03/15 03:05:18;;;;;;;17.40;9.43;;;;;;;-2.10;56.87;96448.84;5032565;28;20401;-67
2022/03/15 03:07:45;;;;;;;16.02;9.10;;;;;;;-2.14;57.55;96443.81;5048896;28;20066;-67
2022/03/15 03:10:11;;;;;;;14.68;8.60;;;;;;;-2.10;57.83;96450.56;5049033;28;20031;-66
2022/03/15 03:12:41;;;;;;;15.45;9.52;;;;;;;-2.18;58.39;96448.06;5050157;28;20139;-67
2022/03/15 03:15:12;;;;;;;19.27;10.35;;;;;;;-2.31;58.42;96449.03;5033064;28;20025;-66
2022/03/15 03:17:43;;;;;;;20.00;11.32;;;;;;;-2.27;58.45;96460.84;5033680;28;20026;-66
2022/03/15 03:20:13;;;;;;;16.00;9.30;;;;;;;-2.40;58.15;96438.88;5028935;28;20060;-67
2022/03/15 03:22:39;;;;;;;17.92;10.05;;;;;;;-2.38;58.63;96442.25;5029007;28;20465;-67
2022/03/15 03:25:05;;;;;;;24.50;12.68;;;;;;;-2.40;59.16;96449.91;5029046;28;20506;-66
2022/03/15 03:27:30;;;;;;;23.58;12.05;;;;;;;-2.43;59.14;96438.91;5032342;28;20113;-66
2022/03/15 03:29:58;;;;;;;38.97;16.88;;;;;;;-2.41;59.18;96438.03;5032567;28;20029;-67
2022/03/15 03:32:25;;;;;;;35.60;14.82;;;;;;;-2.51;59.73;96428.75;5033671;28;20307;-66
2022/03/15 03:34:50;;;;;;;203.63;48.45;;;;;;;-2.52;59.43;96424.53;5032520;28;20040;-67
2022/03/15 03:37:16;;;;;;;184.35;44.90;;;;;;;-2.53;59.73;96422.84;5015653;28;20025;-67
2022/03/15 03:39:41;;;;;;;274.88;63.80;;;;;;;-2.60;59.97;96419.47;5032363;28;20033;-66
2022/03/15 03:42:07;;;;;;;202.88;49.38;;;;;;;-2.67;59.37;96429.69;5032244;28;20091;-66
2022/03/15 03:44:33;;;;;;;91.00;26.15;;;;;;;-2.66;59.53;96431.41;5032520;28;20072;-66
2022/03/15 03:46:59;;;;;;;22.25;11.88;;;;;;;-2.68;59.29;96435.66;5032133;28;20032;-66
2022/03/15 03:49:24;;;;;;;17.30;9.38;;;;;;;-2.71;59.79;96433.97;5032368;28;20033;-67
2022/03/15 03:51:50;;;;;;;18.92;10.80;;;;;;;-2.83;60.12;96424.69;5015577;28;20036;-66
2022/03/15 03:54:15;;;;;;;23.48;10.52;;;;;;;-2.83;60.46;96424.69;5015785;28;20044;-67
2022/03/15 03:56:41;;;;;;;16.90;9.60;;;;;;;-2.93;60.58;96425.59;5032018;28;20032;-66
2022/03/15 03:59:06;;;;;;;17.90;9.93;;;;;;;-2.87;60.84;96438.31;5033511;28;20029;-66
2022/03/15 04:01:31;;;;;;;16.92;9.55;;;;;;;-3.03;60.55;96422.25;5033172;28;20025;-66
2022/03/15 04:04:02;;;;;;;16.77;9.73;;;;;;;-2.94;60.92;96449.34;5032060;28;20034;-66
2022/03/15 04:06:28;;;;;;;17.33;9.77;;;;;;;-2.89;60.96;96454.41;5031963;28;20029;-66
2022/03/15 04:08:56;;;;;;;19.55;9.77;;;;;;;-2.86;60.46;96470.50;5033458;28;20034;-66
2022/03/15 04:11:21;;;;;;;15.25;9.85;;;;;;;-2.90;60.60;96468.81;5031826;28;20053;-66
2022/03/15 04:13:47;;;;;;;17.45;9.73;;;;;;;-2.87;60.38;96479.00;5031790;28;20068;-66
2022/03/15 04:16:12;;;;;;;14.98;9.23;;;;;;;-2.87;61.04;96479.00;5034817;28;20040;-66
2022/03/15 04:18:38;;;;;;;15.30;9.98;;;;;;;-2.92;61.51;96491.72;5052562;28;20064;-66
2022/03/15 04:21:03;;;;;;;19.55;10.25;;;;;;;-3.01;61.53;96490.88;5052693;28;20017;-66
2022/03/15 04:23:28;;;;;;;14.82;8.70;;;;;;;-3.08;61.23;96490.06;5035008;28;20036;-66
2022/03/15 04:25:54;;;;;;;18.75;9.23;;;;;;;-3.12;61.30;96485.00;5051299;28;20029;-66
2022/03/15 04:28:19;;;;;;;17.80;9.20;;;;;;;-3.16;60.91;96487.53;5052576;28;20048;-67
2022/03/15 04:30:45;;;;;;;17.67;11.38;;;;;;;-3.17;61.42;96487.56;5052550;28;20032;-66
2022/03/15 04:33:11;;;;;;;21.27;13.07;;;;;;;-3.14;60.77;96495.19;5051320;28;20044;-66
2022/03/15 04:35:36;;;;;;;18.88;11.52;;;;;;;-3.18;61.64;96501.94;5052457;28;20025;-66
2022/03/15 04:38:02;;;;;;;14.88;9.05;;;;;;;-3.15;61.63;96501.97;5042880;28;20095;-66
2022/03/15 04:40:28;;;;;;;13.95;8.30;;;;;;;-3.12;60.93;96492.63;5039653;28;20439;-66
2022/03/15 04:42:54;;;;;;;13.32;8.95;;;;;;;-3.11;61.18;96491.78;5014560;28;20124;-66
2022/03/15 04:45:20;;;;;;;14.25;7.93;;;;;;;-3.09;60.93;96497.69;5014863;28;20059;-66
2022/03/15 04:47:46;;;;;;;18.83;9.07;;;;;;;-3.08;60.57;96504.50;5031035;28;20040;-66
2022/03/15 04:50:11;;;;;;;20.13;10.10;;;;;;;-3.21;60.88;96494.34;5030969;28;20036;-66
2022/03/15 04:52:37;;;;;;;16.98;8.45;;;;;;;-3.09;61.37;96513.81;5030992;28;20033;-66
2022/03/15 04:55:06;;;;;;;13.48;7.38;;;;;;;-3.12;61.85;96500.25;5032237;28;20029;-66
2022/03/15 04:57:31;;;;;;;14.10;7.93;;;;;;;-3.13;62.04;96503.66;5014540;28;20025;-66
2022/03/15 04:59:57;;;;;;;18.85;9.20;;;;;;;-3.12;61.61;96503.66;5014314;28;20021;-67
2022/03/15 05:02:23;;;;;;;14.07;8.55;;;;;;;-3.19;61.87;96487.56;5030556;28;20037;-67
2022/03/15 05:04:49;;;;;;;16.02;9.02;;;;;;;-3.17;61.89;96496.03;5014400;28;20048;-66
2022/03/15 05:07:15;;;;;;;18.45;8.75;;;;;;;-3.13;61.43;96501.94;5030583;28;20435;-67
2022/03/15 05:11:06;;;;;;;15.05;8.52;;;;;;;-3.13;61.89;96496.03;5014201;28;20459;-66
2022/03/15 05:12:26;;;;;;;13.38;7.88;;;;;;;-3.14;61.70;96487.56;5030664;28;20038;-66
2022/03/15 05:14:51;;;;;;;13.95;8.05;;;;;;;-3.16;60.96;96492.63;4997872;28;20041;-67
2022/03/15 05:17:18;;;;;;;12.63;7.00;;;;;;;-3.13;60.35;96491.78;5013838;28;20025;-66
2022/03/15 05:19:44;;;;;;;12.70;7.38;;;;;;;-3.12;59.30;96490.09;5030398;28;20531;-66
2022/03/15 05:22:09;;;;;;;15.00;7.78;;;;;;;-3.02;59.17;96484.13;5031608;28;20080;-66
2022/03/15 05:24:35;;;;;;;14.23;6.97;;;;;;;-2.92;58.83;96495.97;5030685;28;20041;-66
2022/03/15 05:27:01;;;;;;;14.23;7.43;;;;;;;-2.79;58.43;96496.75;5030262;28;20025;-66
2022/03/15 05:29:26;;;;;;;11.18;6.82;;;;;;;-2.66;58.50;96495.84;4997719;28;20048;-66
2022/03/15 05:31:51;;;;;;;19.60;10.45;;;;;;;-2.62;58.96;96489.03;4997382;28;20029;-66
2022/03/15 05:34:17;;;;;;;23.63;11.82;;;;;;;-2.58;58.50;96490.75;5013948;28;20030;-67
2022/03/15 05:36:43;;;;;;;23.40;11.43;;;;;;;-2.54;59.21;96493.25;5032580;28;20063;-66
2022/03/15 05:39:09;;;;;;;33.45;16.42;;;;;;;-2.44;58.79;96494.06;5046652;28;20033;-66
2022/03/15 05:41:35;;;;;;;32.15;15.60;;;;;;;-2.36;59.00;96484.69;5034262;28;20060;-66
2022/03/15 05:44:00;;;;;;;39.33;19.23;;;;;;;-2.31;59.26;96484.66;5059068;28;20087;-66
2022/03/15 05:46:26;;;;;;;32.13;18.58;;;;;;;-2.26;59.31;96485.44;5049863;28;20036;-66
2022/03/15 05:48:52;;;;;;;38.20;19.73;;;;;;;-1.90;59.44;96492.00;5033039;28;20509;-66
2022/03/15 05:51:18;;;;;;;40.92;20.23;;;;;;;-1.18;58.08;96483.72;5049768;28;20549;-66
2022/03/15 05:53:43;;;;;;;44.35;23.42;;;;;;;-0.47;55.25;96490.56;5045056;28;20036;-66
2022/03/15 05:56:09;;;;;;;41.08;20.73;;;;;;;0.10;54.29;96489.75;5038694;28;20082;-66
2022/03/15 05:58:35;;;;;;;36.55;19.75;;;;;;;0.51;53.51;96493.38;5026228;28;20037;-66
2022/03/15 06:01:01;;;;;;;40.25;21.60;;;;;;;0.92;51.30;96494.34;5013586;28;20029;-66
2022/03/15 06:03:26;;;;;;;42.38;24.88;;;;;;;1.38;50.01;96496.03;5037980;28;20108;-67
2022/03/15 06:05:54;;;;;;;41.38;23.42;;;;;;;1.49;50.02;96499.22;5039284;28;20396;-66
2022/03/15 06:08:20;;;;;;;35.22;21.58;;;;;;;1.71;49.18;96500.47;5047922;28;20037;-66
2022/03/15 06:10:45;;;;;;;46.92;25.80;;;;;;;2.01;47.42;96498.97;5047847;28;20040;-67
2022/03/15 06:13:11;;;;;;;46.45;24.52;;;;;;;2.40;46.24;96500.66;5049651;28;20048;-67
2022/03/15 06:15:36;;;;;;;42.53;23.52;;;;;;;2.82;45.75;96514.13;5049597;28;20028;-66
2022/03/15 06:18:03;;;;;;;42.67;25.13;;;;;;;3.12;44.66;96509.94;5049224;28;20080;-67
2022/03/15 06:20:28;;;;;;;45.10;25.48;;;;;;;3.49;43.97;96502.94;5025796;28;20091;-67
2022/03/15 06:22:54;;;;;;;42.17;25.35;;;;;;;3.83;43.18;96507.97;5029542;28;20476;-67
2022/03/15 06:25:19;;;;;;;52.00;26.90;;;;;;;3.95;42.56;96497.28;5013131;28;20047;-67
2022/03/15 06:27:45;;;;;;;53.05;26.50;;;;;;;4.34;42.00;96504.69;5030794;28;20044;-67
2022/03/15 06:30:11;;;;;;;54.30;29.08;;;;;;;4.73;41.08;96504.28;5013040;28;20040;-67
2022/03/15 06:32:36;;;;;;;53.92;27.73;;;;;;;4.79;40.69;96509.25;5045911;28;20502;-67
2022/03/15 06:35:05;;;;;;;51.67;29.35;;;;;;;5.24;40.43;96516.31;5044805;28;20060;-66
2022/03/15 06:37:31;;;;;;;55.38;28.30;;;;;;;5.74;39.79;96507.66;5050831;28;20033;-67
2022/03/15 06:39:56;;;;;;;56.00;29.05;;;;;;;6.03;38.33;96501.44;5045389;28;20462;-69
2022/03/15 06:42:22;;;;;;;52.53;28.35;;;;;;;6.38;38.43;96506.97;5040988;28;20073;-70
2022/03/15 06:44:48;;;;;;;50.47;27.98;;;;;;;6.89;36.96;96500.63;5012777;28;20026;-72
2022/03/15 06:47:13;;;;;;;48.03;28.15;;;;;;;7.04;36.83;96504.28;5015919;28;20819;-69
2022/03/15 06:49:39;;;;;;;50.15;29.02;;;;;;;7.27;36.57;96506.75;5031480;28;20052;-69
2022/03/15 06:52:04;;;;;;;46.00;27.20;;;;;;;7.36;36.00;96500.34;5044098;28;20040;-70
2022/03/15 06:54:30;;;;;;;65.50;36.55;;;;;;;6.83;37.00;96501.72;5046659;28;20075;-70
2022/03/15 06:56:57;;;;;;;62.08;35.05;;;;;;;6.74;37.97;96503.81;5039789;28;20032;-68
2022/03/15 06:59:23;;;;;;;69.65;35.83;;;;;;;6.80;37.89;96503.56;5033496;28;20457;-69
2022/03/15 07:01:48;;;;;;;70.78;36.33;;;;;;;6.40;38.36;96512.91;5045824;28;20029;-70
2022/03/15 07:04:13;;;;;;;61.65;31.98;;;;;;;6.33;38.08;96501.16;5053832;28;20033;-70
2022/03/15 07:06:39;;;;;;;65.20;33.00;;;;;;;6.47;38.37;96511.78;5054112;28;20479;-69
2022/03/15 07:09:04;;;;;;;61.92;34.78;;;;;;;6.60;38.18;96512.97;5034061;28;20041;-70
2022/03/15 07:11:30;;;;;;;61.92;34.60;;;;;;;6.35;38.51;96504.50;5028841;28;20033;-68
2022/03/15 07:13:55;;;;;;;68.35;35.33;;;;;;;6.26;38.77;96503.97;5041449;28;20028;-69
2022/03/15 07:16:21;;;;;;;60.55;32.50;;;;;;;6.18;38.32;96510.31;5032967;28;20040;-69
2022/03/15 07:18:46;;;;;;;64.60;34.15;;;;;;;5.81;39.75;96509.09;5036532;28;20073;-69
2022/03/15 07:21:12;;;;;;;65.82;35.15;;;;;;;5.83;40.50;96510.75;5032504;28;20025;-69
2022/03/15 07:23:37;;;;;;;60.13;34.05;;;;;;;5.81;40.80;96506.53;5029403;28;20033;-69
2022/03/15 07:26:03;;;;;;;55.72;31.55;;;;;;;5.78;39.32;96510.06;5019709;28;20065;-69
2022/03/15 07:28:28;;;;;;;58.92;32.28;;;;;;;5.82;40.37;96508.19;5058866;28;20037;-69
2022/03/15 07:30:54;;;;;;;59.92;31.70;;;;;;;5.94;39.54;96500.06;5042952;28;20029;-70
2022/03/15 07:33:20;;;;;;;49.65;28.05;;;;;;;5.85;38.67;96517.56;5028003;28;20406;-68
2022/03/15 07:35:45;;;;;;;47.05;27.70;;;;;;;5.64;39.30;96508.91;5042035;28;20040;-68
2022/03/15 07:38:13;;;;;;;56.40;30.23;;;;;;;5.66;39.32;96513.09;5043811;28;20033;-68
2022/03/15 07:40:39;;;;;;;52.92;29.80;;;;;;;5.44;39.02;96514.78;5045950;28;20032;-67
2022/03/15 07:43:04;;;;;;;52.92;29.63;;;;;;;5.41;39.01;96520.03;5032204;28;20087;-68
2022/03/15 07:45:30;;;;;;;51.58;28.20;;;;;;;5.50;39.84;96511.97;5031769;28;20032;-67
2022/03/15 07:47:55;;;;;;;58.25;29.55;;;;;;;5.66;40.23;96518.25;5032209;28;20561;-68
2022/03/15 07:50:21;;;;;;;54.28;28.05;;;;;;;5.70;39.26;96506.94;5032263;28;20491;-69
2022/03/15 07:52:47;;;;;;;47.20;27.92;;;;;;;5.49;40.32;96505.13;5015707;28;20091;-68
2022/03/15 07:55:13;;;;;;;59.15;30.67;;;;;;;5.63;39.96;96505.47;5015645;28;20057;-69
2022/03/15 07:57:38;;;;;;;49.30;28.27;;;;;;;5.79;40.52;96506.59;5032040;28;20118;-68
2022/03/15 08:00:04;;;;;;;51.70;28.20;;;;;;;5.97;39.87;96501.69;5032009;28;20495;-69
2022/03/15 08:02:30;;;;;;;52.95;28.52;;;;;;;5.85;40.76;96502.09;4999335;28;20481;-69
2022/03/15 08:04:55;;;;;;;50.80;27.77;;;;;;;5.86;40.54;96502.03;5033242;28;20034;-68
2022/03/15 08:07:22;;;;;;;50.10;27.88;;;;;;;5.87;40.00;96497.72;5033039;28;20022;-69
2022/03/15 08:09:47;;;;;;;52.15;28.33;;;;;;;5.90;40.73;96495.03;5015369;28;20120;-69
2022/03/15 08:12:13;;;;;;;49.90;25.17;;;;;;;6.03;39.58;96497.13;5014882;28;20033;-69
2022/03/15 08:14:38;;;;;;;44.95;23.73;;;;;;;5.91;39.09;96489.81;5031988;28;20033;-68
2022/03/15 08:17:04;;;;;;;44.92;24.92;;;;;;;5.81;39.76;96497.06;5032870;28;20041;-68
2022/03/15 08:19:29;;;;;;;45.08;25.38;;;;;;;5.82;39.87;96485.84;5031411;28;20115;-68
2022/03/15 08:21:55;;;;;;;40.70;24.35;;;;;;;6.01;40.66;96488.59;5032824;28;20033;-69
2022/03/15 08:24:22;;;;;;;41.03;23.67;;;;;;;5.95;39.82;96486.25;5031414;28;20029;-68
2022/03/15 08:26:47;;;;;;;38.65;23.15;;;;;;;6.17;39.82;96491.44;5032709;28;20045;-69
2022/03/15 08:29:13;;;;;;;44.72;24.80;;;;;;;6.20;39.30;96477.56;5015154;28;20543;-69
2022/03/15 08:31:38;;;;;;;45.75;24.77;;;;;;;6.37;40.17;96482.91;5014933;28;20492;-69
2022/03/15 08:34:04;;;;;;;38.70;23.58;;;;;;;6.47;39.05;96479.06;5032998;28;20036;-68
2022/03/15 08:36:29;;;;;;;31.90;19.92;;;;;;;6.52;38.84;96488.34;5031292;28;20083;-69
2022/03/15 08:38:54;;;;;;;36.92;19.33;;;;;;;6.55;38.35;96473.59;5031319;28;20107;-69
2022/03/15 08:41:20;;;;;;;25.00;15.90;;;;;;;6.57;37.90;96481.25;5031103;28;20021;-68
2022/03/15 08:43:46;;;;;;;30.67;18.15;;;;;;;6.53;38.58;96475.38;5032746;28;20038;-67
2022/03/15 08:46:11;;;;;;;30.02;18.33;;;;;;;6.57;39.82;96471.75;5032329;28;20479;-68
2022/03/15 08:48:37;;;;;;;37.45;19.65;;;;;;;6.43;39.67;96467.16;5032616;28;20037;-68
2022/03/15 08:51:02;;;;;;;34.25;19.67;;;;;;;6.50;40.66;96467.78;5031080;28;20030;-67
2022/03/15 08:53:28;;;;;;;36.35;20.27;;;;;;;6.59;40.87;96451.06;5031115;28;20060;-67
2022/03/15 08:55:55;;;;;;;30.75;18.02;;;;;;;6.69;41.08;96442.88;4998140;28;20041;-67
2022/03/15 08:58:20;;;;;;;31.13;19.42;;;;;;;6.84;40.24;96443.97;5030899;28;20083;-68
2022/03/15 09:00:46;;;;;;;31.60;19.42;;;;;;;6.92;40.40;96453.97;5032054;28;20483;-67
2022/03/15 09:03:11;;;;;;;29.60;18.50;;;;;;;7.01;39.90;96448.41;5032176;28;20042;-67
2022/03/15 09:05:37;;;;;;;31.00;19.63;;;;;;;7.03;39.82;96438.03;4997921;28;20025;-67
2022/03/15 09:08:03;;;;;;;28.08;17.90;;;;;;;7.04;40.21;96437.94;5014334;28;20073;-67
2022/03/15 09:10:28;;;;;;;27.55;17.50;;;;;;;6.91;39.43;96439.41;5031833;28;20039;-68
2022/03/15 09:12:54;;;;;;;29.52;18.38;;;;;;;6.89;40.21;96430.84;5030588;28;20034;-67
2022/03/15 09:15:20;;;;;;;33.22;19.08;;;;;;;7.02;39.56;96432.03;5030668;28;20036;-67
2022/03/15 09:17:46;;;;;;;28.42;18.38;;;;;;;7.12;39.34;96424.69;5030269;28;20129;-67
2022/03/15 09:20:11;;;;;;;25.60;16.13;;;;;;;7.05;38.21;96431.88;5030490;28;20030;-67
2022/03/15 09:22:37;;;;;;;26.23;15.05;;;;;;;6.98;38.98;96424.47;5031664;28;20395;-68
2022/03/15 09:25:03;;;;;;;26.35;14.63;;;;;;;7.08;38.28;96424.00;5029460;28;20029;-67
2022/03/15 09:27:29;;;;;;;24.95;15.05;;;;;;;7.07;38.39;96427.47;5031473;28;20123;-67
2022/03/15 09:29:55;;;;;;;29.27;15.52;;;;;;;7.13;39.08;96424.63;5031563;28;20021;-70
2022/03/15 09:32:21;;;;;;;25.25;14.57;;;;;;;7.21;37.33;96419.09;5030137;28;20030;-68
2022/03/15 09:34:46;;;;;;;22.52;13.65;;;;;;;7.30;37.04;96412.69;5031459;28;20017;-69
2022/03/15 09:37:12;;;;;;;22.92;13.98;;;;;;;7.30;36.86;96407.53;5030168;28;20032;-68
2022/03/15 09:39:37;;;;;;;25.67;15.10;;;;;;;7.43;37.14;96411.25;5030322;28;20041;-68
2022/03/15 09:42:07;;;;;;;23.20;14.18;;;;;;;7.56;37.50;96396.84;5031299;28;20086;-68
2022/03/15 09:44:33;;;;;;;22.80;13.93;;;;;;;7.71;37.40;96399.63;5014236;28;20041;-68
2022/03/15 09:47:01;;;;;;;22.42;13.90;;;;;;;7.71;35.81;96399.63;5030081;28;20426;-68
2022/03/15 09:49:27;;;;;;;22.77;14.18;;;;;;;7.73;35.64;96392.66;5030218;28;20045;-68
2022/03/15 09:51:54;;;;;;;24.17;14.73;;;;;;;7.84;35.86;96396.41;5030019;28;20506;-68
2022/03/15 09:54:20;;;;;;;21.30;13.18;;;;;;;7.85;35.48;96384.31;5030108;28;20033;-68
2022/03/15 09:56:46;;;;;;;22.73;12.90;;;;;;;7.97;35.61;96391.50;5029909;28;20048;-68
2022/03/15 09:59:14;;;;;;;23.40;13.10;;;;;;;8.05;35.17;96389.41;5031479;28;20037;-68
2022/03/15 10:01:40;;;;;;;18.98;12.75;;;;;;;8.14;35.60;96384.69;5029794;28;20101;-68
2022/03/15 10:04:06;;;;;;;20.30;12.63;;;;;;;8.19;35.22;96383.56;5013647;28;20041;-68
2022/03/15 10:06:31;;;;;;;18.15;12.45;;;;;;;8.27;35.24;96386.63;5013365;28;20025;-68
2022/03/15 10:08:57;;;;;;;20.48;12.82;;;;;;;8.39;35.94;96381.78;5013488;28;20037;-68
2022/03/15 10:11:23;;;;;;;23.20;12.30;;;;;;;8.54;35.23;96369.81;5029623;28;20026;-68
2022/03/15 10:13:49;;;;;;;21.90;13.32;;;;;;;8.53;34.03;96363.78;5029831;28;20454;-68
2022/03/15 10:16:15;;;;;;;20.23;11.80;;;;;;;8.48;34.62;96365.78;5013101;28;20038;-68
2022/03/15 10:18:51;;;;;;;24.90;13.50;;;;;;;8.57;33.91;96351.50;5030808;28;20522;-68
2022/03/15 10:21:17;;;;;;;19.52;13.52;;;;;;;8.55;33.46;96335.22;5030817;28;20058;-68
2022/03/15 10:23:42;;;;;;;21.42;13.15;;;;;;;8.60;34.47;96336.66;5029728;28;20034;-68
2022/03/15 10:26:08;;;;;;;18.70;11.93;;;;;;;8.81;33.97;96355.47;5029490;28;20021;-68
2022/03/15 10:28:36;;;;;;;20.48;13.98;;;;;;;8.87;33.68;96347.34;5029667;28;20048;-68
2022/03/15 10:31:04;;;;;;;24.40;12.80;;;;;;;8.79;32.99;96333.97;5013440;28;20105;-68
2022/03/15 10:33:32;;;;;;;22.92;14.38;;;;;;;9.04;33.63;96337.88;5013618;28;20057;-68
2022/03/15 10:35:57;;;;;;;26.20;13.82;;;;;;;9.13;32.13;96333.03;5016261;28;20049;-68
2022/03/15 10:38:23;;;;;;;21.15;13.32;;;;;;;9.18;31.65;96327.59;5033567;28;20479;-68
2022/03/15 10:40:49;;;;;;;21.83;14.25;;;;;;;9.17;33.80;96329.38;5034806;28;20037;-68
2022/03/15 10:43:18;;;;;;;24.58;15.05;;;;;;;8.97;33.13;96316.63;5000818;28;20040;-68
2022/03/15 10:45:55;;;;;;;26.17;16.25;;;;;;;9.10;32.90;96320.22;5017256;28;20495;-68
2022/03/15 10:48:23;;;;;;;28.55;17.55;;;;;;;9.11;32.06;96321.06;5034807;28;20044;-67
2022/03/15 10:50:54;;;;;;;29.58;18.08;;;;;;;9.20;32.02;96315.41;5033254;28;20041;-68
2022/03/15 10:53:20;;;;;;;;;;;;;;;9.38;31.35;96316.16;5033716;28;20033;-68
2022/03/15 10:55:45;;;;;;;23.92;14.98;;;;;;;9.36;31.38;96302.41;5033267;28;19920;-68
2022/03/15 10:58:13;;;;;;;26.27;15.95;;;;;;;9.55;31.96;96302.25;5033267;28;20060;-68
2022/03/15 11:00:40;;;;;;;25.23;16.08;;;;;;;9.52;31.68;96287.69;5032985;28;20475;-68
2022/03/15 11:03:13;;;;;;;26.92;16.90;;;;;;;9.73;31.26;96293.47;5016556;28;20061;-68
2022/03/15 11:05:39;;;;;;;24.77;16.35;;;;;;;9.81;31.09;96291.28;5033051;28;20491;-68
2022/03/15 11:08:05;;;;;;;25.48;15.50;;;;;;;9.85;32.05;96287.56;5033050;28;20484;-68
2022/03/15 11:10:30;;;;;;;26.08;17.58;;;;;;;10.01;30.69;96281.53;5033033;28;20088;-68
2022/03/15 11:12:57;;;;;;;27.98;17.85;;;;;;;10.08;30.07;96272.44;5034142;28;20437;-68
2022/03/15 11:15:28;;;;;;;23.88;15.77;;;;;;;10.25;29.31;96267.13;5032898;28;20104;-68